Jinghe, China
Current Conditions -  °F | °C
As of 3:00 PM on Friday 24 Oct 2014 (Local Time) from ZWWW Reporting Station
Clear Clear  
Wind Chill: 66°   Ceiling: Unl
Heat Index: 66°   Visibility: 6mi
Dew Point: 39°   Wind: 2mph
Humidity: 37%   Direction: NA
Pressure: 30.09"   Gusts: NA
Location:  44.62°N, 82.9°E
Report Text: ZWWW 240700Z VRB01MPS CAVOK 19/04 Q1019 NOSIG
Loading
Personal Weather Stations






























Interactive Weather Map
Tropical Storm Tracking
New forecast layout! Learn more

10-Day Weather Forecast

Advertisements
Track Severe Weather on mobile